sensor_id;sensor_type;location;lat;lon;timestamp;P1;durP1;ratioP1;P2;durP2;ratioP2
7383;SDS011;3733;47.994;8.820;2024-02-14T00:02:20;10.57;;;6.20;;
7383;SDS011;3733;47.994;8.820;2024-02-14T00:04:46;12.50;;;7.03;;
7383;SDS011;3733;47.994;8.820;2024-02-14T00:07:13;12.50;;;7.27;;
7383;SDS011;3733;47.994;8.820;2024-02-14T00:09:39;10.30;;;5.77;;
7383;SDS011;3733;47.994;8.820;2024-02-14T00:12:05;11.50;;;6.90;;
7383;SDS011;3733;47.994;8.820;2024-02-14T00:14:31;15.43;;;6.80;;
7383;SDS011;3733;47.994;8.820;2024-02-14T00:16:57;15.90;;;7.33;;
7383;SDS011;3733;47.994;8.820;2024-02-14T00:19:24;13.60;;;7.50;;
7383;SDS011;3733;47.994;8.820;2024-02-14T00:21:50;14.17;;;7.43;;
7383;SDS011;3733;47.994;8.820;2024-02-14T00:24:15;10.87;;;6.93;;
7383;SDS011;3733;47.994;8.820;2024-02-14T00:26:43;13.10;;;7.40;;
7383;SDS011;3733;47.994;8.820;2024-02-14T00:29:11;12.20;;;6.90;;
7383;SDS011;3733;47.994;8.820;2024-02-14T00:31:36;9.30;;;6.40;;
7383;SDS011;3733;47.994;8.820;2024-02-14T00:34:02;10.57;;;5.33;;
7383;SDS011;3733;47.994;8.820;2024-02-14T00:36:28;11.80;;;5.80;;
7383;SDS011;3733;47.994;8.820;2024-02-14T00:38:53;11.50;;;5.53;;
7383;SDS011;3733;47.994;8.820;2024-02-14T00:41:19;7.77;;;5.53;;
7383;SDS011;3733;47.994;8.820;2024-02-14T00:43:44;10.53;;;6.20;;
7383;SDS011;3733;47.994;8.820;2024-02-14T00:46:15;11.73;;;6.90;;
7383;SDS011;3733;47.994;8.820;2024-02-14T00:48:42;12.63;;;6.80;;
7383;SDS011;3733;47.994;8.820;2024-02-14T00:51:09;11.03;;;5.97;;
7383;SDS011;3733;47.994;8.820;2024-02-14T00:53:35;9.53;;;6.47;;
7383;SDS011;3733;47.994;8.820;2024-02-14T00:56:00;10.83;;;6.40;;
7383;SDS011;3733;47.994;8.820;2024-02-14T00:58:26;9.47;;;6.00;;
7383;SDS011;3733;47.994;8.820;2024-02-14T01:00:51;9.87;;;6.53;;
7383;SDS011;3733;47.994;8.820;2024-02-14T01:03:17;8.87;;;6.10;;
7383;SDS011;3733;47.994;8.820;2024-02-14T01:05:43;13.20;;;6.57;;
7383;SDS011;3733;47.994;8.820;2024-02-14T01:08:08;11.20;;;6.23;;
7383;SDS011;3733;47.994;8.820;2024-02-14T01:10:34;8.10;;;5.60;;
7383;SDS011;3733;47.994;8.820;2024-02-14T01:13:00;14.47;;;6.97;;
7383;SDS011;3733;47.994;8.820;2024-02-14T01:15:26;11.00;;;6.10;;
7383;SDS011;3733;47.994;8.820;2024-02-14T01:17:51;13.90;;;6.67;;
7383;SDS011;3733;47.994;8.820;2024-02-14T01:20:17;9.50;;;6.17;;
7383;SDS011;3733;47.994;8.820;2024-02-14T01:22:43;11.50;;;6.53;;
7383;SDS011;3733;47.994;8.820;2024-02-14T01:25:11;14.50;;;6.60;;
7383;SDS011;3733;47.994;8.820;2024-02-14T01:27:37;13.33;;;6.57;;
7383;SDS011;3733;47.994;8.820;2024-02-14T01:30:02;8.90;;;6.17;;
7383;SDS011;3733;47.994;8.820;2024-02-14T01:32:29;10.87;;;6.23;;
7383;SDS011;3733;47.994;8.820;2024-02-14T01:34:55;12.60;;;7.50;;
7383;SDS011;3733;47.994;8.820;2024-02-14T01:37:20;14.17;;;6.63;;
7383;SDS011;3733;47.994;8.820;2024-02-14T01:39:46;10.80;;;7.10;;
7383;SDS011;3733;47.994;8.820;2024-02-14T01:42:12;13.10;;;7.00;;
7383;SDS011;3733;47.994;8.820;2024-02-14T01:44:37;9.90;;;6.00;;
7383;SDS011;3733;47.994;8.820;2024-02-14T01:47:03;10.20;;;6.07;;
7383;SDS011;3733;47.994;8.820;2024-02-14T01:49:30;11.40;;;5.97;;
7383;SDS011;3733;47.994;8.820;2024-02-14T01:51:58;9.97;;;6.90;;
7383;SDS011;3733;47.994;8.820;2024-02-14T01:54:26;8.90;;;5.87;;
7383;SDS011;3733;47.994;8.820;2024-02-14T01:56:53;9.50;;;6.03;;
7383;SDS011;3733;47.994;8.820;2024-02-14T01:59:20;11.00;;;5.00;;
7383;SDS011;3733;47.994;8.820;2024-02-14T02:01:46;9.33;;;5.70;;
7383;SDS011;3733;47.994;8.820;2024-02-14T02:04:11;9.00;;;5.23;;
7383;SDS011;3733;47.994;8.820;2024-02-14T02:06:37;10.30;;;6.10;;
7383;SDS011;3733;47.994;8.820;2024-02-14T02:09:06;13.20;;;7.47;;
7383;SDS011;3733;47.994;8.820;2024-02-14T02:11:42;9.27;;;5.77;;
7383;SDS011;3733;47.994;8.820;2024-02-14T02:14:20;9.80;;;5.20;;
7383;SDS011;3733;47.994;8.820;2024-02-14T02:16:47;9.93;;;5.77;;
7383;SDS011;3733;47.994;8.820;2024-02-14T02:19:13;9.97;;;5.60;;
7383;SDS011;3733;47.994;8.820;2024-02-14T02:21:41;13.47;;;6.83;;
7383;SDS011;3733;47.994;8.820;2024-02-14T02:24:11;13.63;;;6.50;;
7383;SDS011;3733;47.994;8.820;2024-02-14T02:26:37;15.70;;;6.80;;
7383;SDS011;3733;47.994;8.820;2024-02-14T02:29:02;9.10;;;6.10;;
7383;SDS011;3733;47.994;8.820;2024-02-14T02:31:30;11.37;;;6.43;;
7383;SDS011;3733;47.994;8.820;2024-02-14T02:33:56;9.63;;;6.63;;
7383;SDS011;3733;47.994;8.820;2024-02-14T02:36:21;11.70;;;6.57;;
7383;SDS011;3733;47.994;8.820;2024-02-14T02:38:49;10.83;;;6.33;;
7383;SDS011;3733;47.994;8.820;2024-02-14T02:41:15;14.20;;;7.20;;
7383;SDS011;3733;47.994;8.820;2024-02-14T02:43:40;15.70;;;7.50;;
7383;SDS011;3733;47.994;8.820;2024-02-14T02:46:08;13.10;;;6.90;;
7383;SDS011;3733;47.994;8.820;2024-02-14T02:48:34;13.13;;;7.27;;
7383;SDS011;3733;47.994;8.820;2024-02-14T02:51:01;13.00;;;6.80;;
7383;SDS011;3733;47.994;8.820;2024-02-14T02:53:26;11.93;;;6.40;;
7383;SDS011;3733;47.994;8.820;2024-02-14T02:55:52;11.53;;;6.23;;
7383;SDS011;3733;47.994;8.820;2024-02-14T02:58:19;12.67;;;6.63;;
7383;SDS011;3733;47.994;8.820;2024-02-14T03:00:46;16.77;;;6.10;;
7383;SDS011;3733;47.994;8.820;2024-02-14T03:03:14;10.27;;;7.20;;
7383;SDS011;3733;47.994;8.820;2024-02-14T03:05:41;10.30;;;5.93;;
7383;SDS011;3733;47.994;8.820;2024-02-14T03:08:09;9.10;;;6.40;;
7383;SDS011;3733;47.994;8.820;2024-02-14T03:10:41;9.83;;;5.33;;
7383;SDS011;3733;47.994;8.820;2024-02-14T03:13:06;10.83;;;5.93;;
7383;SDS011;3733;47.994;8.820;2024-02-14T03:15:39;11.57;;;5.77;;
7383;SDS011;3733;47.994;8.820;2024-02-14T03:18:04;8.30;;;5.40;;
7383;SDS011;3733;47.994;8.820;2024-02-14T03:20:33;13.10;;;5.60;;
7383;SDS011;3733;47.994;8.820;2024-02-14T03:23:00;10.00;;;6.00;;
7383;SDS011;3733;47.994;8.820;2024-02-14T03:25:26;13.23;;;5.77;;
7383;SDS011;3733;47.994;8.820;2024-02-14T03:27:51;11.70;;;5.67;;
7383;SDS011;3733;47.994;8.820;2024-02-14T03:30:19;9.03;;;5.07;;
7383;SDS011;3733;47.994;8.820;2024-02-14T03:32:48;10.90;;;5.43;;
7383;SDS011;3733;47.994;8.820;2024-02-14T03:35:14;6.67;;;5.03;;
7383;SDS011;3733;47.994;8.820;2024-02-14T03:37:40;8.50;;;5.33;;
7383;SDS011;3733;47.994;8.820;2024-02-14T03:40:08;9.30;;;4.87;;
7383;SDS011;3733;47.994;8.820;2024-02-14T03:42:34;12.63;;;6.30;;
7383;SDS011;3733;47.994;8.820;2024-02-14T03:45:00;10.20;;;6.20;;
7383;SDS011;3733;47.994;8.820;2024-02-14T03:47:33;8.80;;;5.43;;
7383;SDS011;3733;47.994;8.820;2024-02-14T03:50:00;9.73;;;5.10;;
7383;SDS011;3733;47.994;8.820;2024-02-14T03:52:26;9.50;;;6.20;;
7383;SDS011;3733;47.994;8.820;2024-02-14T03:54:52;10.50;;;5.83;;
7383;SDS011;3733;47.994;8.820;2024-02-14T03:57:18;10.87;;;6.10;;
7383;SDS011;3733;47.994;8.820;2024-02-14T03:59:44;9.70;;;5.50;;
7383;SDS011;3733;47.994;8.820;2024-02-14T04:02:09;9.53;;;7.30;;
7383;SDS011;3733;47.994;8.820;2024-02-14T04:04:40;12.53;;;6.10;;
7383;SDS011;3733;47.994;8.820;2024-02-14T04:07:07;10.67;;;5.40;;
7383;SDS011;3733;47.994;8.820;2024-02-14T04:09:33;10.37;;;5.67;;
7383;SDS011;3733;47.994;8.820;2024-02-14T04:11:59;12.87;;;6.40;;
7383;SDS011;3733;47.994;8.820;2024-02-14T04:14:25;8.90;;;5.37;;
7383;SDS011;3733;47.994;8.820;2024-02-14T04:16:51;8.93;;;5.90;;
7383;SDS011;3733;47.994;8.820;2024-02-14T04:19:16;10.70;;;5.13;;
7383;SDS011;3733;47.994;8.820;2024-02-14T04:21:42;9.90;;;5.70;;
7383;SDS011;3733;47.994;8.820;2024-02-14T04:24:08;9.50;;;5.63;;
7383;SDS011;3733;47.994;8.820;2024-02-14T04:26:34;11.70;;;6.90;;
7383;SDS011;3733;47.994;8.820;2024-02-14T04:29:00;12.73;;;6.83;;
7383;SDS011;3733;47.994;8.820;2024-02-14T04:31:26;10.67;;;6.10;;
7383;SDS011;3733;47.994;8.820;2024-02-14T04:33:52;8.90;;;5.53;;
7383;SDS011;3733;47.994;8.820;2024-02-14T04:36:19;10.23;;;5.50;;
7383;SDS011;3733;47.994;8.820;2024-02-14T04:38:46;16.00;;;5.40;;
7383;SDS011;3733;47.994;8.820;2024-02-14T04:41:13;12.50;;;4.60;;
7383;SDS011;3733;47.994;8.820;2024-02-14T04:43:39;8.00;;;5.00;;
7383;SDS011;3733;47.994;8.820;2024-02-14T04:46:05;7.20;;;5.33;;
7383;SDS011;3733;47.994;8.820;2024-02-14T04:48:35;10.63;;;5.80;;
7383;SDS011;3733;47.994;8.820;2024-02-14T04:51:02;7.00;;;4.90;;
7383;SDS011;3733;47.994;8.820;2024-02-14T04:53:28;5.87;;;4.53;;
7383;SDS011;3733;47.994;8.820;2024-02-14T04:55:53;9.50;;;5.90;;
7383;SDS011;3733;47.994;8.820;2024-02-14T04:58:19;8.80;;;5.23;;
7383;SDS011;3733;47.994;8.820;2024-02-14T05:00:45;8.67;;;5.40;;
7383;SDS011;3733;47.994;8.820;2024-02-14T05:03:11;8.80;;;5.00;;
7383;SDS011;3733;47.994;8.820;2024-02-14T05:05:37;8.53;;;4.90;;
7383;SDS011;3733;47.994;8.820;2024-02-14T05:08:03;9.97;;;4.93;;
7383;SDS011;3733;47.994;8.820;2024-02-14T05:10:29;9.50;;;5.47;;
7383;SDS011;3733;47.994;8.820;2024-02-14T05:12:56;8.17;;;5.43;;
7383;SDS011;3733;47.994;8.820;2024-02-14T05:15:22;8.73;;;5.37;;
7383;SDS011;3733;47.994;8.820;2024-02-14T05:17:47;8.20;;;5.07;;
7383;SDS011;3733;47.994;8.820;2024-02-14T05:20:15;9.03;;;5.40;;
7383;SDS011;3733;47.994;8.820;2024-02-14T05:22:41;6.50;;;4.80;;
7383;SDS011;3733;47.994;8.820;2024-02-14T05:25:07;21.97;;;5.33;;
7383;SDS011;3733;47.994;8.820;2024-02-14T05:27:34;16.27;;;5.90;;
7383;SDS011;3733;47.994;8.820;2024-02-14T05:30:01;12.20;;;6.00;;
7383;SDS011;3733;47.994;8.820;2024-02-14T05:32:30;12.90;;;6.90;;
7383;SDS011;3733;47.994;8.820;2024-02-14T05:34:59;15.70;;;7.97;;
7383;SDS011;3733;47.994;8.820;2024-02-14T05:37:24;17.30;;;7.50;;
7383;SDS011;3733;47.994;8.820;2024-02-14T05:39:52;15.83;;;7.23;;
7383;SDS011;3733;47.994;8.820;2024-02-14T05:42:18;10.00;;;5.83;;
7383;SDS011;3733;47.994;8.820;2024-02-14T05:44:44;13.10;;;5.90;;
7383;SDS011;3733;47.994;8.820;2024-02-14T05:47:10;8.27;;;5.63;;
7383;SDS011;3733;47.994;8.820;2024-02-14T05:49:36;10.90;;;5.73;;
7383;SDS011;3733;47.994;8.820;2024-02-14T05:52:03;10.97;;;6.20;;
7383;SDS011;3733;47.994;8.820;2024-02-14T05:54:28;10.20;;;5.83;;
7383;SDS011;3733;47.994;8.820;2024-02-14T05:56:54;11.23;;;7.53;;
7383;SDS011;3733;47.994;8.820;2024-02-14T05:59:19;15.23;;;6.43;;
7383;SDS011;3733;47.994;8.820;2024-02-14T06:01:46;12.83;;;6.17;;
7383;SDS011;3733;47.994;8.820;2024-02-14T06:04:11;9.30;;;5.87;;
7383;SDS011;3733;47.994;8.820;2024-02-14T06:06:37;8.40;;;5.70;;
7383;SDS011;3733;47.994;8.820;2024-02-14T06:09:03;8.07;;;5.37;;
7383;SDS011;3733;47.994;8.820;2024-02-14T06:11:34;12.67;;;5.57;;
7383;SDS011;3733;47.994;8.820;2024-02-14T06:14:00;11.87;;;5.27;;
7383;SDS011;3733;47.994;8.820;2024-02-14T06:16:26;9.50;;;5.50;;
7383;SDS011;3733;47.994;8.820;2024-02-14T06:18:52;19.20;;;8.13;;
7383;SDS011;3733;47.994;8.820;2024-02-14T06:21:18;9.63;;;6.30;;
7383;SDS011;3733;47.994;8.820;2024-02-14T06:23:44;9.93;;;5.70;;
7383;SDS011;3733;47.994;8.820;2024-02-14T06:26:11;6.90;;;4.83;;
7383;SDS011;3733;47.994;8.820;2024-02-14T06:28:37;9.00;;;5.57;;
7383;SDS011;3733;47.994;8.820;2024-02-14T06:31:03;7.23;;;5.60;;
7383;SDS011;3733;47.994;8.820;2024-02-14T06:33:28;12.20;;;5.80;;
7383;SDS011;3733;47.994;8.820;2024-02-14T06:35:54;11.13;;;6.50;;
7383;SDS011;3733;47.994;8.820;2024-02-14T06:38:20;7.73;;;5.33;;
7383;SDS011;3733;47.994;8.820;2024-02-14T06:40:45;10.20;;;6.00;;
7383;SDS011;3733;47.994;8.820;2024-02-14T06:43:11;14.13;;;6.50;;
7383;SDS011;3733;47.994;8.820;2024-02-14T06:45:37;11.40;;;6.20;;
7383;SDS011;3733;47.994;8.820;2024-02-14T06:48:03;9.57;;;6.30;;
7383;SDS011;3733;47.994;8.820;2024-02-14T06:50:29;12.70;;;6.40;;
7383;SDS011;3733;47.994;8.820;2024-02-14T06:52:56;19.30;;;7.83;;
7383;SDS011;3733;47.994;8.820;2024-02-14T06:55:25;23.80;;;14.37;;
7383;SDS011;3733;47.994;8.820;2024-02-14T06:57:51;11.30;;;7.20;;
7383;SDS011;3733;47.994;8.820;2024-02-14T07:00:17;12.17;;;5.97;;
7383;SDS011;3733;47.994;8.820;2024-02-14T07:02:43;9.90;;;5.40;;
7383;SDS011;3733;47.994;8.820;2024-02-14T07:05:12;11.63;;;6.20;;
7383;SDS011;3733;47.994;8.820;2024-02-14T07:07:39;13.13;;;6.07;;
7383;SDS011;3733;47.994;8.820;2024-02-14T07:10:05;8.33;;;5.10;;
7383;SDS011;3733;47.994;8.820;2024-02-14T07:12:32;8.10;;;4.90;;
7383;SDS011;3733;47.994;8.820;2024-02-14T07:14:57;13.43;;;5.80;;
7383;SDS011;3733;47.994;8.820;2024-02-14T07:17:23;11.60;;;5.70;;
7383;SDS011;3733;47.994;8.820;2024-02-14T07:19:49;18.67;;;6.93;;
7383;SDS011;3733;47.994;8.820;2024-02-14T07:22:15;11.67;;;5.97;;
7383;SDS011;3733;47.994;8.820;2024-02-14T07:24:43;9.67;;;6.10;;
7383;SDS011;3733;47.994;8.820;2024-02-14T07:27:08;14.20;;;7.20;;
7383;SDS011;3733;47.994;8.820;2024-02-14T07:29:36;12.50;;;7.73;;
7383;SDS011;3733;47.994;8.820;2024-02-14T07:32:02;14.10;;;7.53;;
7383;SDS011;3733;47.994;8.820;2024-02-14T07:34:27;13.50;;;6.67;;
7383;SDS011;3733;47.994;8.820;2024-02-14T07:36:53;13.57;;;7.07;;
7383;SDS011;3733;47.994;8.820;2024-02-14T07:39:19;16.93;;;8.20;;
7383;SDS011;3733;47.994;8.820;2024-02-14T07:41:45;13.13;;;7.30;;
7383;SDS011;3733;47.994;8.820;2024-02-14T07:44:11;13.60;;;6.80;;
7383;SDS011;3733;47.994;8.820;2024-02-14T07:46:38;11.03;;;6.80;;
7383;SDS011;3733;47.994;8.820;2024-02-14T07:49:03;12.97;;;7.00;;
7383;SDS011;3733;47.994;8.820;2024-02-14T07:51:30;12.10;;;6.90;;
7383;SDS011;3733;47.994;8.820;2024-02-14T07:54:01;17.57;;;7.20;;
7383;SDS011;3733;47.994;8.820;2024-02-14T07:56:27;13.83;;;6.97;;
7383;SDS011;3733;47.994;8.820;2024-02-14T07:58:53;26.77;;;6.83;;
7383;SDS011;3733;47.994;8.820;2024-02-14T08:01:18;14.03;;;7.37;;
7383;SDS011;3733;47.994;8.820;2024-02-14T08:03:44;14.00;;;7.53;;
7383;SDS011;3733;47.994;8.820;2024-02-14T08:06:11;18.33;;;7.77;;
7383;SDS011;3733;47.994;8.820;2024-02-14T08:08:37;10.50;;;7.00;;
7383;SDS011;3733;47.994;8.820;2024-02-14T08:11:03;12.40;;;8.73;;
7383;SDS011;3733;47.994;8.820;2024-02-14T08:13:29;13.40;;;7.63;;
7383;SDS011;3733;47.994;8.820;2024-02-14T08:15:54;19.10;;;7.97;;
7383;SDS011;3733;47.994;8.820;2024-02-14T08:18:20;10.50;;;7.53;;
7383;SDS011;3733;47.994;8.820;2024-02-14T08:20:46;17.30;;;7.87;;
7383;SDS011;3733;47.994;8.820;2024-02-14T08:23:11;19.07;;;8.30;;
7383;SDS011;3733;47.994;8.820;2024-02-14T08:25:37;17.90;;;7.40;;
7383;SDS011;3733;47.994;8.820;2024-02-14T08:28:03;16.03;;;8.50;;
7383;SDS011;3733;47.994;8.820;2024-02-14T08:30:29;11.50;;;7.33;;
7383;SDS011;3733;47.994;8.820;2024-02-14T08:32:54;17.27;;;8.50;;
7383;SDS011;3733;47.994;8.820;2024-02-14T08:35:20;15.80;;;8.23;;
7383;SDS011;3733;47.994;8.820;2024-02-14T08:37:46;22.70;;;9.17;;
7383;SDS011;3733;47.994;8.820;2024-02-14T08:40:12;16.77;;;8.07;;
7383;SDS011;3733;47.994;8.820;2024-02-14T08:42:37;19.17;;;8.50;;
7383;SDS011;3733;47.994;8.820;2024-02-14T08:45:03;14.03;;;8.10;;
7383;SDS011;3733;47.994;8.820;2024-02-14T08:47:29;16.77;;;8.43;;
7383;SDS011;3733;47.994;8.820;2024-02-14T08:49:55;12.30;;;8.03;;
7383;SDS011;3733;47.994;8.820;2024-02-14T08:52:21;14.23;;;8.57;;
7383;SDS011;3733;47.994;8.820;2024-02-14T08:54:46;16.27;;;8.53;;
7383;SDS011;3733;47.994;8.820;2024-02-14T08:57:12;13.23;;;8.30;;
7383;SDS011;3733;47.994;8.820;2024-02-14T08:59:38;11.20;;;7.17;;
7383;SDS011;3733;47.994;8.820;2024-02-14T09:02:03;16.47;;;7.57;;
7383;SDS011;3733;47.994;8.820;2024-02-14T09:04:29;17.43;;;7.70;;
7383;SDS011;3733;47.994;8.820;2024-02-14T09:06:56;16.30;;;7.33;;
7383;SDS011;3733;47.994;8.820;2024-02-14T09:09:21;15.07;;;7.57;;
7383;SDS011;3733;47.994;8.820;2024-02-14T09:11:47;12.63;;;6.63;;
7383;SDS011;3733;47.994;8.820;2024-02-14T09:14:12;8.90;;;5.80;;
7383;SDS011;3733;47.994;8.820;2024-02-14T09:16:38;21.83;;;7.30;;
7383;SDS011;3733;47.994;8.820;2024-02-14T09:19:04;15.30;;;6.67;;
7383;SDS011;3733;47.994;8.820;2024-02-14T09:21:32;12.70;;;6.07;;
7383;SDS011;3733;47.994;8.820;2024-02-14T09:24:00;20.77;;;7.20;;
7383;SDS011;3733;47.994;8.820;2024-02-14T09:26:26;9.73;;;5.97;;
7383;SDS011;3733;47.994;8.820;2024-02-14T09:28:51;11.10;;;5.10;;
7383;SDS011;3733;47.994;8.820;2024-02-14T09:31:20;10.43;;;4.77;;
7383;SDS011;3733;47.994;8.820;2024-02-14T09:33:49;10.70;;;5.80;;
7383;SDS011;3733;47.994;8.820;2024-02-14T09:36:15;11.97;;;5.23;;
7383;SDS011;3733;47.994;8.820;2024-02-14T09:38:41;7.23;;;3.00;;
7383;SDS011;3733;47.994;8.820;2024-02-14T09:44:01;4.80;;;3.00;;
7383;SDS011;3733;47.994;8.820;2024-02-14T09:46:28;8.20;;;3.10;;
7383;SDS011;3733;47.994;8.820;2024-02-14T09:48:55;5.83;;;2.90;;
7383;SDS011;3733;47.994;8.820;2024-02-14T09:51:24;5.30;;;2.40;;
7383;SDS011;3733;47.994;8.820;2024-02-14T09:53:50;2.90;;;2.60;;
7383;SDS011;3733;47.994;8.820;2024-02-14T09:56:18;5.50;;;2.70;;
7383;SDS011;3733;47.994;8.820;2024-02-14T09:58:47;2.80;;;2.47;;
7383;SDS011;3733;47.994;8.820;2024-02-14T10:01:20;3.40;;;2.80;;
7383;SDS011;3733;47.994;8.820;2024-02-14T10:03:49;3.83;;;2.47;;
7383;SDS011;3733;47.994;8.820;2024-02-14T10:06:15;3.43;;;2.50;;
7383;SDS011;3733;47.994;8.820;2024-02-14T10:08:42;4.17;;;2.53;;
7383;SDS011;3733;47.994;8.820;2024-02-14T10:11:07;7.30;;;3.00;;
7383;SDS011;3733;47.994;8.820;2024-02-14T10:13:33;8.90;;;2.87;;
7383;SDS011;3733;47.994;8.820;2024-02-14T10:15:59;6.23;;;3.40;;
7383;SDS011;3733;47.994;8.820;2024-02-14T10:18:26;7.63;;;2.80;;
7383;SDS011;3733;47.994;8.820;2024-02-14T10:20:58;4.90;;;2.53;;
7383;SDS011;3733;47.994;8.820;2024-02-14T10:23:23;2.83;;;2.23;;
7383;SDS011;3733;47.994;8.820;2024-02-14T10:25:50;3.53;;;2.37;;
7383;SDS011;3733;47.994;8.820;2024-02-14T10:28:18;4.07;;;2.20;;
7383;SDS011;3733;47.994;8.820;2024-02-14T10:30:46;3.33;;;2.40;;
7383;SDS011;3733;47.994;8.820;2024-02-14T10:33:12;3.40;;;2.37;;
7383;SDS011;3733;47.994;8.820;2024-02-14T10:35:37;4.70;;;2.50;;
7383;SDS011;3733;47.994;8.820;2024-02-14T10:38:06;3.03;;;2.40;;
7383;SDS011;3733;47.994;8.820;2024-02-14T10:40:34;6.93;;;3.43;;
7383;SDS011;3733;47.994;8.820;2024-02-14T10:43:01;8.20;;;2.30;;
7383;SDS011;3733;47.994;8.820;2024-02-14T10:45:27;3.57;;;2.10;;
7383;SDS011;3733;47.994;8.820;2024-02-14T10:47:53;6.20;;;2.37;;
7383;SDS011;3733;47.994;8.820;2024-02-14T10:50:22;4.43;;;2.20;;
7383;SDS011;3733;47.994;8.820;2024-02-14T10:52:49;4.27;;;2.10;;
7383;SDS011;3733;47.994;8.820;2024-02-14T10:55:21;2.50;;;2.30;;
7383;SDS011;3733;47.994;8.820;2024-02-14T10:57:51;3.27;;;2.23;;
7383;SDS011;3733;47.994;8.820;2024-02-14T11:00:19;3.50;;;1.90;;
7383;SDS011;3733;47.994;8.820;2024-02-14T11:02:45;6.40;;;2.73;;
7383;SDS011;3733;47.994;8.820;2024-02-14T11:05:14;6.53;;;2.17;;
7383;SDS011;3733;47.994;8.820;2024-02-14T11:07:46;3.60;;;2.13;;
7383;SDS011;3733;47.994;8.820;2024-02-14T11:10:15;4.30;;;2.37;;
7383;SDS011;3733;47.994;8.820;2024-02-14T11:12:42;3.93;;;2.47;;
7383;SDS011;3733;47.994;8.820;2024-02-14T11:17:42;1.83;;;1.63;;
7383;SDS011;3733;47.994;8.820;2024-02-14T11:20:18;2.40;;;1.70;;
7383;SDS011;3733;47.994;8.820;2024-02-14T11:22:54;12.43;;;2.63;;
7383;SDS011;3733;47.994;8.820;2024-02-14T11:25:30;16.30;;;2.13;;
7383;SDS011;3733;47.994;8.820;2024-02-14T11:27:59;2.30;;;1.20;;
7383;SDS011;3733;47.994;8.820;2024-02-14T11:30:46;2.77;;;1.83;;
7383;SDS011;3733;47.994;8.820;2024-02-14T11:33:15;2.80;;;1.90;;
7383;SDS011;3733;47.994;8.820;2024-02-14T11:35:43;6.33;;;1.50;;
7383;SDS011;3733;47.994;8.820;2024-02-14T11:38:10;3.50;;;1.57;;
7383;SDS011;3733;47.994;8.820;2024-02-14T11:40:36;10.40;;;1.97;;
7383;SDS011;3733;47.994;8.820;2024-02-14T11:43:14;4.50;;;1.47;;
7383;SDS011;3733;47.994;8.820;2024-02-14T11:45:42;1.63;;;1.37;;
7383;SDS011;3733;47.994;8.820;2024-02-14T11:48:12;4.03;;;1.50;;
7383;SDS011;3733;47.994;8.820;2024-02-14T11:50:41;2.30;;;1.70;;
7383;SDS011;3733;47.994;8.820;2024-02-14T11:53:08;2.00;;;1.60;;
7383;SDS011;3733;47.994;8.820;2024-02-14T11:55:36;1.37;;;1.20;;
7383;SDS011;3733;47.994;8.820;2024-02-14T11:58:16;2.83;;;1.70;;
7383;SDS011;3733;47.994;8.820;2024-02-14T12:00:43;1.40;;;1.30;;
7383;SDS011;3733;47.994;8.820;2024-02-14T12:03:10;1.53;;;1.17;;
7383;SDS011;3733;47.994;8.820;2024-02-14T12:05:38;9.47;;;1.83;;
7383;SDS011;3733;47.994;8.820;2024-02-14T12:08:05;8.80;;;1.90;;
7383;SDS011;3733;47.994;8.820;2024-02-14T12:10:32;1.90;;;1.30;;
7383;SDS011;3733;47.994;8.820;2024-02-14T12:12:58;1.20;;;1.10;;
7383;SDS011;3733;47.994;8.820;2024-02-14T12:15:29;3.07;;;1.40;;
7383;SDS011;3733;47.994;8.820;2024-02-14T12:17:55;1.10;;;1.00;;
7383;SDS011;3733;47.994;8.820;2024-02-14T12:20:22;1.10;;;1.00;;
7383;SDS011;3733;47.994;8.820;2024-02-14T12:22:51;2.27;;;1.40;;
7383;SDS011;3733;47.994;8.820;2024-02-14T12:25:17;1.20;;;1.10;;
7383;SDS011;3733;47.994;8.820;2024-02-14T12:27:43;3.03;;;1.13;;
7383;SDS011;3733;47.994;8.820;2024-02-14T12:30:16;1.13;;;0.93;;
7383;SDS011;3733;47.994;8.820;2024-02-14T12:32:43;1.53;;;1.03;;
7383;SDS011;3733;47.994;8.820;2024-02-14T12:35:10;1.00;;;1.00;;
7383;SDS011;3733;47.994;8.820;2024-02-14T12:37:35;1.63;;;1.00;;
7383;SDS011;3733;47.994;8.820;2024-02-14T12:40:01;2.50;;;0.90;;
7383;SDS011;3733;47.994;8.820;2024-02-14T12:42:27;1.23;;;0.93;;
7383;SDS011;3733;47.994;8.820;2024-02-14T12:44:56;0.97;;;0.87;;
7383;SDS011;3733;47.994;8.820;2024-02-14T12:47:21;1.20;;;1.10;;
7383;SDS011;3733;47.994;8.820;2024-02-14T12:49:48;2.00;;;1.10;;
7383;SDS011;3733;47.994;8.820;2024-02-14T12:52:14;1.00;;;0.90;;
7383;SDS011;3733;47.994;8.820;2024-02-14T12:54:40;1.40;;;1.00;;
7383;SDS011;3733;47.994;8.820;2024-02-14T12:57:06;1.00;;;0.90;;
7383;SDS011;3733;47.994;8.820;2024-02-14T12:59:32;1.30;;;1.00;;
7383;SDS011;3733;47.994;8.820;2024-02-14T13:01:57;1.30;;;0.87;;
7383;SDS011;3733;47.994;8.820;2024-02-14T13:04:23;0.80;;;0.80;;
7383;SDS011;3733;47.994;8.820;2024-02-14T13:06:49;1.33;;;1.00;;
7383;SDS011;3733;47.994;8.820;2024-02-14T13:09:15;5.50;;;1.00;;
7383;SDS011;3733;47.994;8.820;2024-02-14T13:11:41;4.20;;;0.90;;
7383;SDS011;3733;47.994;8.820;2024-02-14T13:14:07;1.37;;;1.07;;
7383;SDS011;3733;47.994;8.820;2024-02-14T13:16:34;0.90;;;0.90;;
7383;SDS011;3733;47.994;8.820;2024-02-14T13:19:00;0.80;;;0.80;;
7383;SDS011;3733;47.994;8.820;2024-02-14T13:21:25;1.40;;;1.07;;
7383;SDS011;3733;47.994;8.820;2024-02-14T13:23:51;2.30;;;1.20;;
7383;SDS011;3733;47.994;8.820;2024-02-14T13:26:16;2.57;;;1.00;;
7383;SDS011;3733;47.994;8.820;2024-02-14T13:28:42;0.90;;;0.90;;
7383;SDS011;3733;47.994;8.820;2024-02-14T13:31:08;3.63;;;1.30;;
7383;SDS011;3733;47.994;8.820;2024-02-14T13:33:35;1.73;;;0.80;;
7383;SDS011;3733;47.994;8.820;2024-02-14T13:36:00;0.90;;;0.90;;
7383;SDS011;3733;47.994;8.820;2024-02-14T13:38:26;1.53;;;0.80;;
7383;SDS011;3733;47.994;8.820;2024-02-14T13:40:52;1.10;;;0.80;;
7383;SDS011;3733;47.994;8.820;2024-02-14T13:43:18;1.10;;;0.80;;
7383;SDS011;3733;47.994;8.820;2024-02-14T13:45:44;0.77;;;0.77;;
7383;SDS011;3733;47.994;8.820;2024-02-14T13:48:10;0.60;;;0.60;;
7383;SDS011;3733;47.994;8.820;2024-02-14T13:50:36;0.67;;;0.67;;
7383;SDS011;3733;47.994;8.820;2024-02-14T13:53:06;0.77;;;0.70;;
7383;SDS011;3733;47.994;8.820;2024-02-14T13:55:32;0.97;;;0.70;;
7383;SDS011;3733;47.994;8.820;2024-02-14T13:57:58;1.10;;;0.80;;
7383;SDS011;3733;47.994;8.820;2024-02-14T14:00:23;2.20;;;1.20;;
7383;SDS011;3733;47.994;8.820;2024-02-14T14:02:49;0.83;;;0.80;;
7383;SDS011;3733;47.994;8.820;2024-02-14T14:05:14;0.87;;;0.87;;
7383;SDS011;3733;47.994;8.820;2024-02-14T14:07:40;1.37;;;0.90;;
7383;SDS011;3733;47.994;8.820;2024-02-14T14:10:06;1.00;;;0.90;;
7383;SDS011;3733;47.994;8.820;2024-02-14T14:12:35;1.67;;;1.00;;
7383;SDS011;3733;47.994;8.820;2024-02-14T14:15:02;0.90;;;0.90;;
7383;SDS011;3733;47.994;8.820;2024-02-14T14:17:29;1.03;;;0.93;;
7383;SDS011;3733;47.994;8.820;2024-02-14T14:19:55;1.70;;;1.03;;
7383;SDS011;3733;47.994;8.820;2024-02-14T14:22:20;1.00;;;0.90;;
7383;SDS011;3733;47.994;8.820;2024-02-14T14:24:46;0.97;;;0.90;;
7383;SDS011;3733;47.994;8.820;2024-02-14T14:27:12;0.97;;;0.90;;
7383;SDS011;3733;47.994;8.820;2024-02-14T14:29:39;1.00;;;1.00;;
7383;SDS011;3733;47.994;8.820;2024-02-14T14:32:08;2.43;;;0.90;;
7383;SDS011;3733;47.994;8.820;2024-02-14T14:34:37;2.17;;;1.00;;
7383;SDS011;3733;47.994;8.820;2024-02-14T14:37:02;0.80;;;0.80;;
7383;SDS011;3733;47.994;8.820;2024-02-14T14:39:28;1.57;;;1.10;;
7383;SDS011;3733;47.994;8.820;2024-02-14T14:41:56;1.40;;;1.30;;
7383;SDS011;3733;47.994;8.820;2024-02-14T14:44:23;1.40;;;1.30;;
7383;SDS011;3733;47.994;8.820;2024-02-14T14:46:50;2.33;;;1.20;;
7383;SDS011;3733;47.994;8.820;2024-02-14T14:49:15;1.17;;;1.07;;
7383;SDS011;3733;47.994;8.820;2024-02-14T14:51:41;1.53;;;1.10;;
7383;SDS011;3733;47.994;8.820;2024-02-14T14:54:07;2.20;;;1.60;;
7383;SDS011;3733;47.994;8.820;2024-02-14T14:56:33;1.43;;;1.30;;
7383;SDS011;3733;47.994;8.820;2024-02-14T14:58:59;3.33;;;1.60;;
7383;SDS011;3733;47.994;8.820;2024-02-14T15:01:28;1.60;;;1.47;;
7383;SDS011;3733;47.994;8.820;2024-02-14T15:03:59;2.30;;;1.77;;
7383;SDS011;3733;47.994;8.820;2024-02-14T15:06:24;1.37;;;1.27;;
7383;SDS011;3733;47.994;8.820;2024-02-14T15:08:50;1.30;;;1.10;;
7383;SDS011;3733;47.994;8.820;2024-02-14T15:11:16;1.70;;;1.07;;
7383;SDS011;3733;47.994;8.820;2024-02-14T15:13:43;1.00;;;1.00;;